createdAt,value
2018-09-06T00:01:50.830Z,90.34
2018-09-06T00:04:20.714Z,89.26
2018-09-06T00:06:49.808Z,89.44
2018-09-06T00:09:18.940Z,89.29
2018-09-06T00:11:48.025Z,88.78
2018-09-06T00:14:17.057Z,88.82
2018-09-06T00:16:47.065Z,89.57
2018-09-06T00:19:16.410Z,89.40
2018-09-06T00:21:45.328Z,88.96
2018-09-06T00:24:14.336Z,89.16
2018-09-06T00:26:43.402Z,89.06
2018-09-06T00:29:12.526Z,89.19
2018-09-06T00:31:41.485Z,88.90
2018-09-06T00:34:16.646Z,88.78
2018-09-06T00:36:45.662Z,88.24
2018-09-06T00:39:14.757Z,88.36
2018-09-06T00:41:43.853Z,88.10
2018-09-06T00:44:12.897Z,87.63
2018-09-06T00:46:41.951Z,88.10
2018-09-06T00:49:10.781Z,88.00
2018-09-06T00:51:39.888Z,87.54
2018-09-06T00:54:08.829Z,87.36
2018-09-06T00:56:37.702Z,87.10
2018-09-06T00:59:06.660Z,85.92
2018-09-06T01:01:35.539Z,86.63
2018-09-06T01:04:04.777Z,86.21
2018-09-06T01:06:33.655Z,86.08
2018-09-06T01:09:02.474Z,85.34
2018-09-06T01:11:31.877Z,85.72
2018-09-06T01:14:00.776Z,85.37
2018-09-06T01:16:29.601Z,84.69
2018-09-06T01:18:58.939Z,84.38
2018-09-06T01:21:27.753Z,84.60
2018-09-06T01:23:56.712Z,84.65
2018-09-06T01:26:25.762Z,83.86
2018-09-06T01:28:54.705Z,83.76
2018-09-06T01:31:23.720Z,83.53
2018-09-06T01:33:53.299Z,83.67
2018-09-06T01:36:27.147Z,83.59
2018-09-06T01:38:57.233Z,83.66
2018-09-06T01:41:26.223Z,83.17
2018-09-06T01:43:55.288Z,83.88
2018-09-06T01:46:24.347Z,83.36
2018-09-06T01:48:53.285Z,83.25
2018-09-06T01:51:22.290Z,83.05
2018-09-06T01:53:51.213Z,83.11
2018-09-06T01:56:20.253Z,82.49
2018-09-06T01:58:49.224Z,81.93
2018-09-06T02:01:18.232Z,81.91
2018-09-06T02:03:48.187Z,82.40
2018-09-06T02:06:18.052Z,82.25
2018-09-06T02:08:51.383Z,82.27
2018-09-06T02:11:20.468Z,82.77
2018-09-06T02:13:49.766Z,82.48
2018-09-06T02:16:18.946Z,81.77
2018-09-06T02:18:49.001Z,82.08
2018-09-06T02:21:17.970Z,81.20
2018-09-06T02:23:46.937Z,81.69
2018-09-06T02:26:15.919Z,80.58
2018-09-06T02:28:44.903Z,80.22
2018-09-06T02:31:14.321Z,79.63
2018-09-06T02:33:43.271Z,78.55
2018-09-06T02:36:12.450Z,78.18
2018-09-06T02:38:42.012Z,78.48
2018-09-06T02:41:11.930Z,78.68
2018-09-06T02:43:48.311Z,78.08
2018-09-06T02:46:22.614Z,78.33
2018-09-06T02:48:51.851Z,78.46
2018-09-06T02:51:21.841Z,78.79
2018-09-06T02:53:52.383Z,78.67
2018-09-06T02:56:21.362Z,78.81
2018-09-06T02:58:50.417Z,79.42
2018-09-06T03:01:19.997Z,79.34
2018-09-06T03:03:48.866Z,79.26
2018-09-06T03:06:17.945Z,79.89
2018-09-06T03:08:46.936Z,79.59
2018-09-06T03:11:24.011Z,79.67
2018-09-06T03:13:53.887Z,79.45
2018-09-06T03:16:23.152Z,80.13
2018-09-06T03:18:53.313Z,80.07
2018-09-06T03:21:25.688Z,80.19
2018-09-06T03:23:58.794Z,80.55
2018-09-06T03:26:27.756Z,79.97
2018-09-06T03:29:02.806Z,80.27
2018-09-06T03:31:35.896Z,80.08
2018-09-06T03:34:06.509Z,80.17
2018-09-06T03:36:36.285Z,80.46
2018-09-06T03:39:07.750Z,80.04
2018-09-06T03:41:42.241Z,80.73
2018-09-06T03:44:11.650Z,80.14
2018-09-06T03:46:40.656Z,79.67
2018-09-06T03:49:09.699Z,79.85
2018-09-06T03:51:39.121Z,79.79
2018-09-06T03:54:08.028Z,79.45
2018-09-06T03:56:40.388Z,79.03
2018-09-06T03:59:09.252Z,79.14
2018-09-06T04:01:43.359Z,79.14
2018-09-06T04:04:12.420Z,78.92
2018-09-06T04:06:46.029Z,78.93
2018-09-06T04:09:15.848Z,79.00
2018-09-06T04:11:44.940Z,79.31
2018-09-06T04:14:13.880Z,78.77
2018-09-06T04:16:45.846Z,78.85
2018-09-06T04:19:14.697Z,78.12
2018-09-06T04:21:43.522Z,77.68
2018-09-06T04:24:12.629Z,77.72
2018-09-06T04:26:41.592Z,77.13
2018-09-06T04:29:10.543Z,76.62
2018-09-06T04:31:39.980Z,76.36
2018-09-06T04:34:09.110Z,76.22
2018-09-06T04:36:38.014Z,74.76
2018-09-06T04:39:09.690Z,74.52
2018-09-06T04:41:38.660Z,74.46
2018-09-06T04:44:07.959Z,74.34
2018-09-06T04:46:37.600Z,73.51
2018-09-06T04:49:06.561Z,73.03
2018-09-06T04:51:42.186Z,72.81
2018-09-06T04:54:18.160Z,72.41
2018-09-06T04:56:49.374Z,71.88
2018-09-06T04:59:30.530Z,71.79
2018-09-06T05:02:12.872Z,72.01
2018-09-06T05:04:43.331Z,71.54
2018-09-06T05:09:36.035Z,71.57
2018-09-06T05:12:23.710Z,71.31
2018-09-06T05:14:52.852Z,70.82
2018-09-06T05:17:22.081Z,70.69
2018-09-06T05:19:54.384Z,70.40
2018-09-06T05:22:23.472Z,70.95
2018-09-06T05:24:52.731Z,71.03
2018-09-06T05:27:21.718Z,70.37
2018-09-06T05:29:50.917Z,70.17
2018-09-06T05:32:20.009Z,69.22
2018-09-06T05:34:49.334Z,69.85
2018-09-06T05:37:18.144Z,69.45
2018-09-06T05:39:47.157Z,69.12
2018-09-06T05:42:16.148Z,69.31
2018-09-06T05:44:45.197Z,68.97
2018-09-06T05:47:14.281Z,68.91
2018-09-06T05:49:43.247Z,67.98
2018-09-06T05:52:12.964Z,67.21
2018-09-06T05:54:46.367Z,67.50
2018-09-06T05:57:15.538Z,67.42
2018-09-06T05:59:45.539Z,67.96
2018-09-06T06:02:14.894Z,66.76
2018-09-06T06:04:43.758Z,67.57
2018-09-06T06:07:12.687Z,66.87
2018-09-06T06:09:42.165Z,66.36
2018-09-06T06:12:11.069Z,65.50
2018-09-06T06:14:39.901Z,66.11
2018-09-06T06:17:08.858Z,65.88
2018-09-06T06:19:37.881Z,65.15
2018-09-06T06:22:06.854Z,64.34
2018-09-06T06:24:36.121Z,64.94
2018-09-06T06:27:05.193Z,65.15
2018-09-06T06:29:34.245Z,64.25
2018-09-06T06:32:03.309Z,64.24
2018-09-06T06:34:32.396Z,63.50
2018-09-06T06:37:01.478Z,63.29
2018-09-06T06:39:30.526Z,63.21
2018-09-06T06:41:59.321Z,62.63
2018-09-06T06:44:28.288Z,63.30
2018-09-06T06:46:57.771Z,62.51
2018-09-06T06:49:26.721Z,62.58
2018-09-06T06:51:55.792Z,61.82
2018-09-06T06:54:25.169Z,61.63
2018-09-06T06:56:54.187Z,61.68
2018-09-06T06:59:23.239Z,62.30
2018-09-06T07:01:52.713Z,62.49
2018-09-06T07:04:21.697Z,62.04
2018-09-06T07:06:50.694Z,61.94
2018-09-06T07:09:19.989Z,62.96
2018-09-06T07:11:49.918Z,62.38
2018-09-06T07:14:18.924Z,61.01
2018-09-06T07:16:48.294Z,61.17
2018-09-06T07:19:17.126Z,60.64
2018-09-06T07:21:46.173Z,61.61
2018-09-06T07:24:15.792Z,61.72
2018-09-06T07:26:44.696Z,61.39
2018-09-06T07:29:13.667Z,59.48
2018-09-06T07:31:42.695Z,60.16
2018-09-06T07:34:11.544Z,59.40
2018-09-06T07:36:40.409Z,58.93
2018-09-06T07:39:10.395Z,58.98
2018-09-06T07:41:39.342Z,58.25
2018-09-06T07:44:08.424Z,58.71
2018-09-06T07:46:37.515Z,58.28
2018-09-06T07:49:06.561Z,59.16
2018-09-06T07:51:35.667Z,58.24
2018-09-06T07:54:05.896Z,57.66
2018-09-06T07:56:34.853Z,56.95
2018-09-06T07:59:03.733Z,56.57
2018-09-06T08:01:32.828Z,56.92
2018-09-06T08:04:01.683Z,55.71
2018-09-06T08:06:30.678Z,56.47
2018-09-06T08:08:59.799Z,55.24
2018-09-06T08:11:28.708Z,55.50
2018-09-06T08:13:57.703Z,55.77
2018-09-06T08:16:26.840Z,55.42
2018-09-06T08:18:55.908Z,54.19
2018-09-06T08:21:25.045Z,53.95
2018-09-06T08:23:54.396Z,54.97
2018-09-06T08:26:23.316Z,53.37
2018-09-06T08:28:52.088Z,52.50
2018-09-06T08:31:21.126Z,53.97
2018-09-06T08:33:50.535Z,52.62
2018-09-06T08:36:19.591Z,51.49
2018-09-06T08:38:49.025Z,51.88
2018-09-06T08:41:17.872Z,51.03
2018-09-06T08:43:46.769Z,50.98
2018-09-06T08:46:16.048Z,51.61
2018-09-06T08:48:44.934Z,49.97
2018-09-06T08:51:13.799Z,48.30
2018-09-06T08:53:43.103Z,47.76
2018-09-06T08:56:11.913Z,48.39
2018-09-06T08:58:42.284Z,48.37
2018-09-06T09:01:16.722Z,47.73
2018-09-06T09:03:45.751Z,48.27
2018-09-06T09:06:14.957Z,47.13
2018-09-06T09:08:43.879Z,46.80
2018-09-06T09:11:12.966Z,47.07
2018-09-06T09:13:41.930Z,46.13
2018-09-06T09:16:11.081Z,46.10
2018-09-06T09:18:39.934Z,46.25
2018-09-06T09:21:08.865Z,45.06
2018-09-06T09:23:38.176Z,46.36
2018-09-06T09:26:07.198Z,45.49
2018-09-06T09:28:36.105Z,46.29
2018-09-06T09:31:05.173Z,45.67
2018-09-06T09:33:34.279Z,47.46
2018-09-06T09:36:03.280Z,46.43
2018-09-06T09:38:32.071Z,46.13
2018-09-06T09:41:01.136Z,45.17
2018-09-06T09:43:30.133Z,43.41
2018-09-06T09:48:27.038Z,41.66
2018-09-06T09:50:55.956Z,42.19
2018-09-06T09:53:24.812Z,43.96
2018-09-06T09:55:53.671Z,44.06
2018-09-06T09:58:22.677Z,42.82
2018-09-06T10:00:52.316Z,41.25
2018-09-06T10:03:26.321Z,42.78
2018-09-06T10:06:00.952Z,45.05
2018-09-06T10:08:34.942Z,45.55
2018-09-06T10:11:03.981Z,45.82
2018-09-06T10:13:33.118Z,46.52
2018-09-06T10:16:02.127Z,46.85
2018-09-06T10:18:31.443Z,46.55
2018-09-06T10:21:00.587Z,46.85
2018-09-06T10:23:29.661Z,46.84
2018-09-06T10:25:58.969Z,46.42
2018-09-06T10:28:28.099Z,44.78
2018-09-06T10:30:57.152Z,46.00
2018-09-06T10:33:26.425Z,45.47
2018-09-06T10:35:55.439Z,44.55
2018-09-06T10:38:24.448Z,45.29
2018-09-06T10:40:53.772Z,43.90
2018-09-06T10:43:22.733Z,44.98
2018-09-06T10:45:51.752Z,43.13
2018-09-06T10:48:20.660Z,40.91
2018-09-06T10:50:49.712Z,40.66
2018-09-06T10:53:18.741Z,42.21
2018-09-06T10:55:47.912Z,41.97
2018-09-06T10:58:16.845Z,42.38
2018-09-06T11:00:45.697Z,42.48
2018-09-06T11:03:15.046Z,42.76
2018-09-06T11:05:43.995Z,43.49
2018-09-06T11:08:13.119Z,42.82
2018-09-06T11:10:42.211Z,43.80
2018-09-06T11:13:11.414Z,41.22
2018-09-06T11:15:40.232Z,42.08
2018-09-06T11:18:09.302Z,42.09
2018-09-06T11:20:38.113Z,41.98
2018-09-06T11:23:07.132Z,40.90
2018-09-06T11:25:36.104Z,41.31
2018-09-06T11:28:05.093Z,41.65
2018-09-06T11:30:33.956Z,39.74
2018-09-06T11:33:03.275Z,41.01
2018-09-06T11:35:32.501Z,40.44
2018-09-06T11:38:01.532Z,40.00
2018-09-06T11:40:31.242Z,40.15
2018-09-06T11:43:00.607Z,40.05
2018-09-06T11:45:29.599Z,40.97
2018-09-06T11:47:58.621Z,39.00
2018-09-06T11:50:28.160Z,38.50
2018-09-06T11:52:57.097Z,37.34
2018-09-06T11:55:26.131Z,37.70
2018-09-06T11:57:55.439Z,36.96
2018-09-06T12:00:24.840Z,36.41
2018-09-06T12:02:53.780Z,36.42
2018-09-06T12:05:22.770Z,37.77
2018-09-06T12:07:51.583Z,38.23
2018-09-06T12:10:20.638Z,38.84
2018-09-06T12:12:52.990Z,38.00
2018-09-06T12:15:22.036Z,37.62
2018-09-06T12:17:51.052Z,38.16
2018-09-06T12:20:19.900Z,39.00
2018-09-06T12:22:49.050Z,37.88
2018-09-06T12:25:18.114Z,38.03
2018-09-06T12:27:47.202Z,36.27
2018-09-06T12:30:16.139Z,37.12
2018-09-06T12:32:45.415Z,36.68
2018-09-06T12:35:14.703Z,37.67
2018-09-06T12:37:43.649Z,37.79
2018-09-06T12:40:12.424Z,38.94
2018-09-06T12:42:42.081Z,36.42
2018-09-06T12:45:11.085Z,36.79
2018-09-06T12:47:40.245Z,37.49
2018-09-06T12:50:09.664Z,37.37
2018-09-06T12:52:38.679Z,36.29
2018-09-06T12:55:07.669Z,37.59
2018-09-06T12:57:36.561Z,37.36
2018-09-06T13:00:05.590Z,37.62
2018-09-06T13:02:34.631Z,38.50
2018-09-06T13:05:04.022Z,37.58
2018-09-06T13:07:32.965Z,37.19
2018-09-06T13:10:02.009Z,37.78
2018-09-06T13:12:31.300Z,38.06
2018-09-06T13:15:00.266Z,38.45
2018-09-06T13:17:29.385Z,38.71
2018-09-06T13:19:58.317Z,38.30
2018-09-06T13:22:27.483Z,38.98
2018-09-06T13:24:56.530Z,38.67
2018-09-06T13:27:25.942Z,39.01
2018-09-06T13:29:54.902Z,38.87
2018-09-06T13:32:23.801Z,39.60
2018-09-06T13:34:52.881Z,37.90
2018-09-06T13:37:21.819Z,38.14
2018-09-06T13:39:50.675Z,38.85
2018-09-06T13:42:19.905Z,39.31
2018-09-06T13:44:48.981Z,39.69
2018-09-06T13:47:18.667Z,39.64
2018-09-06T13:49:47.876Z,38.68
2018-09-06T13:52:17.271Z,39.07
2018-09-06T13:54:46.135Z,38.92
2018-09-06T13:57:15.491Z,38.38
2018-09-06T13:59:44.499Z,39.02
2018-09-06T14:02:13.421Z,38.33
2018-09-06T14:04:42.514Z,38.43
2018-09-06T14:07:11.563Z,39.89
2018-09-06T14:09:40.520Z,39.10
2018-09-06T14:12:09.648Z,39.86
2018-09-06T14:14:38.693Z,39.39
2018-09-06T14:17:07.801Z,40.13
2018-09-06T14:19:36.837Z,39.19
2018-09-06T14:22:06.312Z,39.68
2018-09-06T14:24:35.192Z,39.61
2018-09-06T14:27:04.176Z,39.08
2018-09-06T14:29:33.136Z,38.30
2018-09-06T14:32:02.101Z,38.50
2018-09-06T14:34:31.328Z,37.41
2018-09-06T14:37:00.149Z,38.80
2018-09-06T14:39:29.017Z,37.63
2018-09-06T14:41:58.120Z,37.90
2018-09-06T14:44:27.173Z,36.85
2018-09-06T14:46:56.289Z,36.35
2018-09-06T14:49:25.935Z,34.21
2018-09-06T14:51:54.735Z,36.62
2018-09-06T14:54:23.717Z,36.45
2018-09-06T14:56:53.273Z,36.42
2018-09-06T14:59:22.335Z,36.54
2018-09-06T15:01:51.214Z,36.94
2018-09-06T15:04:20.167Z,37.03
2018-09-06T15:06:49.109Z,36.68
2018-09-06T15:09:18.050Z,36.81
2018-09-06T15:11:47.588Z,36.31
2018-09-06T15:14:16.377Z,37.88
2018-09-06T15:16:45.273Z,37.57
2018-09-06T15:19:14.575Z,36.71
2018-09-06T15:21:43.585Z,37.87
2018-09-06T15:24:12.609Z,38.72
2018-09-06T15:26:41.911Z,37.78
2018-09-06T15:29:10.974Z,37.44
2018-09-06T15:31:39.802Z,37.54
2018-09-06T15:34:09.818Z,35.69
2018-09-06T15:36:38.734Z,36.95
2018-09-06T15:39:09.039Z,36.03
2018-09-06T15:41:38.359Z,35.60
2018-09-06T15:44:07.560Z,35.52
2018-09-06T15:46:36.578Z,35.16
2018-09-06T15:49:06.132Z,35.29
2018-09-06T15:51:34.908Z,36.06
2018-09-06T15:54:03.756Z,36.13
2018-09-06T15:56:33.048Z,39.00
2018-09-06T15:59:01.951Z,40.66
2018-09-06T16:01:30.774Z,41.65
2018-09-06T16:03:59.719Z,42.42
2018-09-06T16:06:28.572Z,42.43
2018-09-06T16:08:57.371Z,43.34
2018-09-06T16:11:26.268Z,43.13
2018-09-06T16:13:55.204Z,43.21
2018-09-06T16:16:24.133Z,43.31
2018-09-06T16:18:53.306Z,42.22
2018-09-06T16:21:22.216Z,43.83
2018-09-06T16:23:51.020Z,45.18
2018-09-06T16:26:19.905Z,45.03
2018-09-06T16:28:48.785Z,45.50
2018-09-06T16:31:17.701Z,45.39
2018-09-06T16:33:46.665Z,44.56
2018-09-06T16:36:15.429Z,45.69
2018-09-06T16:38:44.209Z,45.95
2018-09-06T16:41:13.207Z,46.56
2018-09-06T16:43:41.918Z,45.97
2018-09-06T16:46:10.749Z,46.81
2018-09-06T16:48:39.611Z,47.72
2018-09-06T16:51:08.462Z,48.46
2018-09-06T16:53:38.227Z,49.11
2018-09-06T16:56:07.597Z,49.22
2018-09-06T16:58:36.511Z,49.96
2018-09-06T17:01:05.462Z,49.24
2018-09-06T17:03:34.472Z,49.67
2018-09-06T17:06:03.346Z,49.90
2018-09-06T17:08:32.303Z,49.78
2018-09-06T17:11:01.545Z,51.63
2018-09-06T17:13:30.609Z,51.56
2018-09-06T17:15:59.452Z,52.34
2018-09-06T17:18:28.809Z,52.33
2018-09-06T17:20:57.717Z,52.65
2018-09-06T17:23:26.489Z,52.27
2018-09-06T17:25:55.355Z,53.86
2018-09-06T17:28:24.130Z,53.63
2018-09-06T17:30:52.991Z,54.18
2018-09-06T17:33:22.304Z,53.98
2018-09-06T17:35:51.471Z,54.16
2018-09-06T17:38:20.407Z,53.65
2018-09-06T17:40:49.517Z,54.07
2018-09-06T17:43:18.351Z,54.08
2018-09-06T17:45:47.199Z,53.76
2018-09-06T17:48:16.452Z,54.30
2018-09-06T17:50:45.505Z,53.32
2018-09-06T17:53:14.391Z,53.45
2018-09-06T17:55:43.579Z,53.60
2018-09-06T17:58:12.553Z,52.81
2018-09-06T18:00:46.496Z,52.50
2018-09-06T18:03:16.062Z,53.70
2018-09-06T18:05:44.841Z,53.87
2018-09-06T18:08:14.371Z,53.78
2018-09-06T18:10:43.356Z,54.23
2018-09-06T18:13:12.303Z,55.61
2018-09-06T18:15:42.035Z,55.86
2018-09-06T18:18:10.898Z,55.90
2018-09-06T18:20:39.726Z,55.75
2018-09-06T18:23:09.004Z,55.79
2018-09-06T18:25:37.865Z,55.33
2018-09-06T18:28:07.149Z,56.09
2018-09-06T18:30:36.140Z,55.64
2018-09-06T18:33:05.042Z,57.19
2018-09-06T18:35:33.902Z,56.21
2018-09-06T18:38:03.272Z,56.27
2018-09-06T18:40:32.125Z,56.11
2018-09-06T18:43:01.112Z,56.91
2018-09-06T18:45:30.333Z,56.89
2018-09-06T18:47:59.301Z,56.52
2018-09-06T18:50:28.234Z,56.98
2018-09-06T18:52:57.732Z,58.40
2018-09-06T18:55:26.701Z,58.51
2018-09-06T18:57:55.569Z,58.61
2018-09-06T19:00:24.336Z,59.14
2018-09-06T19:02:53.232Z,60.45
2018-09-06T19:05:22.011Z,60.10
2018-09-06T19:07:51.549Z,61.07
2018-09-06T19:10:20.315Z,60.36
2018-09-06T19:12:49.313Z,60.88
2018-09-06T19:15:18.617Z,60.56
2018-09-06T19:17:47.813Z,60.59
2018-09-06T19:20:16.884Z,59.98
2018-09-06T19:22:46.116Z,60.42
2018-09-06T19:25:14.929Z,60.11
2018-09-06T19:27:43.895Z,60.65
2018-09-06T19:30:12.933Z,60.46
2018-09-06T19:32:41.807Z,61.05
2018-09-06T19:35:11.409Z,61.13
2018-09-06T19:37:44.974Z,61.53
2018-09-06T19:40:17.581Z,61.75
2018-09-06T19:42:50.532Z,60.97
2018-09-06T19:45:23.189Z,61.46
2018-09-06T19:47:52.262Z,62.28
2018-09-06T19:50:26.892Z,62.43
2018-09-06T19:52:56.518Z,61.79
2018-09-06T19:55:25.342Z,62.37
2018-09-06T19:57:54.327Z,62.73
2018-09-06T20:00:23.270Z,63.31
2018-09-06T20:02:52.407Z,64.24
2018-09-06T20:05:21.583Z,64.80
2018-09-06T20:07:50.913Z,63.48
2018-09-06T20:10:20.019Z,64.08
2018-09-06T20:12:49.921Z,64.07
2018-09-06T20:15:18.998Z,64.26
2018-09-06T20:17:48.145Z,64.86
2018-09-06T20:20:17.018Z,64.41
2018-09-06T20:22:47.858Z,64.67
2018-09-06T20:25:20.976Z,63.77
2018-09-06T20:27:52.114Z,63.23
2018-09-06T20:30:25.806Z,63.70
2018-09-06T20:32:59.040Z,63.45
2018-09-06T20:35:28.193Z,63.62
2018-09-06T20:38:01.369Z,64.05
2018-09-06T20:40:30.213Z,63.84
2018-09-06T20:42:59.407Z,63.14
2018-09-06T20:45:29.733Z,63.12
2018-09-06T20:47:58.739Z,63.55
2018-09-06T20:50:27.717Z,64.03
2018-09-06T20:52:56.610Z,63.40
2018-09-06T20:55:25.411Z,63.57
2018-09-06T20:57:55.412Z,63.31
2018-09-06T21:36:25.112Z,67.16
2018-09-06T21:39:00.002Z,66.72
2018-09-06T21:41:29.004Z,66.70
2018-09-06T21:43:57.910Z,66.46
2018-09-06T21:46:27.158Z,66.56
2018-09-06T21:48:56.130Z,66.36
2018-09-06T21:51:25.468Z,66.30
2018-09-06T21:53:54.525Z,65.54
2018-09-06T21:56:23.749Z,65.66
2018-09-06T21:58:53.787Z,65.34
2018-09-06T22:01:23.552Z,65.70
2018-09-06T22:03:57.680Z,65.47
2018-09-06T22:06:26.833Z,66.11
2018-09-06T22:08:57.922Z,66.15
2018-09-06T22:11:27.163Z,65.88
2018-09-06T22:13:56.665Z,66.20
2018-09-06T22:16:25.925Z,66.42
2018-09-06T22:18:56.492Z,66.34
2018-09-06T22:21:25.964Z,66.54
2018-09-06T22:23:54.923Z,66.52
2018-09-06T22:26:24.549Z,66.86
2018-09-06T22:28:56.286Z,67.04
2018-09-06T22:31:29.105Z,67.01
2018-09-06T22:33:59.117Z,67.11
2018-09-06T22:36:28.764Z,66.92
2018-09-06T22:38:57.928Z,67.71
2018-09-06T22:41:26.916Z,67.30
2018-09-06T22:43:55.841Z,67.60
2018-09-06T22:46:25.691Z,68.53
2018-09-06T22:48:54.675Z,68.51
2018-09-06T22:51:23.643Z,67.80
2018-09-06T22:53:53.003Z,67.62
2018-09-06T22:56:22.160Z,67.56
2018-09-06T22:58:51.418Z,67.20
2018-09-06T23:01:20.855Z,67.43
2018-09-06T23:03:53.244Z,67.05
2018-09-06T23:06:23.267Z,67.71
2018-09-06T23:08:52.408Z,66.90
2018-09-06T23:11:28.438Z,67.01
2018-09-06T23:14:26.557Z,67.42
2018-09-06T23:19:37.422Z,67.15
2018-09-06T23:22:26.421Z,66.92
2018-09-06T23:25:03.975Z,66.98
2018-09-06T23:27:33.106Z,66.71
2018-09-06T23:30:02.235Z,66.81
2018-09-06T23:32:31.467Z,66.88
2018-09-06T23:35:01.557Z,66.76
2018-09-06T23:37:30.742Z,66.54
2018-09-06T23:39:59.989Z,66.50
2018-09-06T23:42:29.273Z,66.64
2018-09-06T23:44:58.368Z,66.48
2018-09-06T23:47:27.378Z,67.00
2018-09-06T23:49:56.766Z,66.46
2018-09-06T23:52:25.687Z,66.34
2018-09-06T23:54:54.446Z,66.61
2018-09-06T23:57:24.031Z,66.62
2018-09-06T23:59:53.041Z,67.20
